Time;durP1;ratioP1;P1;durP2;ratioP2;P2;SDS_P1;SDS_P2;PMS_P1;PMS_P2;Temp;Humidity;BMP_temperature;BMP_pressure;BME280_temperature;BME280_humidity;BME280_pressure;Samples;Min_cycle;Max_cycle;Signal;HPM_P1;HPM_P2
2021/10/29 00:02:22;;;;;;;10.40;9.40;;;11.80;99.90;;;;;;5017461;28;20658;-67
2021/10/29 00:04:51;;;;;;;11.00;9.80;;;11.90;99.90;;;;;;5015722;28;20639;-66
2021/10/29 00:07:19;;;;;;;11.47;10.33;;;11.80;99.90;;;;;;5021814;28;20739;-67
2021/10/29 00:09:45;;;;;;;10.33;9.40;;;11.80;99.90;;;;;;5021681;28;20635;-67
2021/10/29 00:12:15;;;;;;;12.00;10.80;;;11.80;99.90;;;;;;5019141;28;20917;-66
2021/10/29 00:14:48;;;;;;;10.90;9.80;;;11.70;99.90;;;;;;5022279;28;20209;-66
2021/10/29 00:17:17;;;;;;;11.07;10.07;;;11.70;99.90;;;;;;5023630;28;20618;-66
2021/10/29 00:19:43;;;;;;;11.23;10.13;;;11.80;99.90;;;;;;5021642;28;20628;-66
2021/10/29 00:22:09;;;;;;;11.50;10.40;;;11.70;99.90;;;;;;5022282;28;20775;-66
2021/10/29 00:24:35;;;;;;;11.00;9.90;;;11.70;99.90;;;;;;5023812;28;20727;-66
2021/10/29 00:27:04;;;;;;;12.70;10.13;;;11.60;99.90;;;;;;5022322;28;20634;-66
2021/10/29 00:29:30;;;;;;;12.07;10.87;;;11.60;99.90;;;;;;5020971;28;20763;-67
2021/10/29 00:31:55;;;;;;;12.83;11.30;;;11.60;99.90;;;;;;5022293;28;20766;-68
2021/10/29 00:34:31;;;;;;;;;;;;;;;;;;;;;
2021/10/29 00:36:57;;;;;;;11.17;9.97;;;11.40;99.90;;;;;;5023208;28;20617;-66
2021/10/29 00:39:23;;;;;;;12.00;10.70;;;11.40;99.90;;;;;;5022974;28;20621;-66
2021/10/29 00:41:51;;;;;;;12.20;10.87;;;11.40;99.90;;;;;;5023800;28;20248;-69
2021/10/29 00:44:26;;;;;;;12.40;10.30;;;11.40;99.90;;;;;;5022090;28;20209;-68
2021/10/29 00:46:57;;;;;;;11.80;10.60;;;11.20;99.90;;;;;;5022937;28;20757;-69
2021/10/29 00:49:31;;;;;;;13.17;11.77;;;11.20;99.90;;;;;;5021673;28;20651;-71
2021/10/29 00:51:59;;;;;;;12.30;11.20;;;11.20;99.90;;;;;;5023290;28;20758;-68
2021/10/29 00:54:27;;;;;;;12.80;11.27;;;11.10;99.90;;;;;;5019521;28;20622;-68
2021/10/29 00:57:03;;;;;;;11.77;10.60;;;11.10;99.90;;;;;;5021547;28;20699;-67
2021/10/29 00:59:38;;;;;;;12.40;11.10;;;11.00;99.90;;;;;;5017656;28;20594;-68
2021/10/29 01:02:09;;;;;;;14.03;10.60;;;11.00;99.90;;;;;;5018032;28;20646;-70
2021/10/29 01:04:35;;;;;;;12.17;10.97;;;11.00;99.90;;;;;;5019941;28;20933;-70
2021/10/29 01:07:18;;;;;;;12.17;10.90;;;11.00;99.90;;;;;;5021012;28;20598;-70
2021/10/29 01:09:44;;;;;;;11.30;10.10;;;11.00;99.90;;;;;;5009447;28;20216;-70
2021/10/29 01:12:09;;;;;;;11.47;10.37;;;11.00;99.90;;;;;;5019416;28;20663;-70
2021/10/29 01:14:37;;;;;;;12.40;10.80;;;11.00;99.90;;;;;;5013074;28;20615;-69
2021/10/29 01:17:03;;;;;;;11.33;10.10;;;11.00;99.90;;;;;;5020871;28;20215;-70
2021/10/29 01:19:33;;;;;;;12.57;11.37;;;11.00;99.90;;;;;;5001464;28;20614;-70
2021/10/29 01:22:03;;;;;;;12.60;11.33;;;10.90;99.90;;;;;;5019681;28;20647;-70
2021/10/29 01:24:29;;;;;;;11.43;10.33;;;10.80;99.90;;;;;;5020477;28;21182;-69
2021/10/29 01:26:59;;;;;;;12.30;11.00;;;10.80;99.90;;;;;;5021087;28;20604;-69
2021/10/29 01:29:26;;;;;;;12.23;10.93;;;10.90;99.90;;;;;;5018624;28;20192;-69
2021/10/29 01:31:54;;;;;;;13.03;11.43;;;10.80;99.90;;;;;;5018202;28;20684;-69
2021/10/29 01:34:20;;;;;;;13.23;11.17;;;10.80;99.90;;;;;;5021195;28;20608;-70
2021/10/29 01:36:45;;;;;;;11.93;10.73;;;10.80;99.90;;;;;;5020620;28;20634;-70
2021/10/29 01:39:16;;;;;;;12.17;10.97;;;10.70;99.90;;;;;;5021296;28;20189;-70
2021/10/29 01:41:44;;;;;;;12.07;10.90;;;10.80;99.90;;;;;;5020580;28;20259;-69
2021/10/29 01:44:20;;;;;;;13.57;11.80;;;10.80;99.90;;;;;;5018846;28;20619;-69
2021/10/29 01:46:49;;;;;;;12.43;11.13;;;10.70;99.90;;;;;;5020323;28;20653;-69
2021/10/29 01:49:15;;;;;;;15.83;12.00;;;10.70;99.90;;;;;;5018599;28;20708;-69
2021/10/29 01:51:42;;;;;;;12.40;11.10;;;10.60;99.90;;;;;;5018780;28;20803;-70
2021/10/29 01:54:08;;;;;;;14.73;13.00;;;10.60;99.90;;;;;;5020602;28;20622;-70
2021/10/29 01:56:39;;;;;;;14.70;12.20;;;10.60;99.90;;;;;;5015313;28;20615;-70
2021/10/29 01:59:05;;;;;;;12.87;11.57;;;10.60;99.90;;;;;;5022351;28;20287;-70
2021/10/29 02:01:33;;;;;;;14.83;12.60;;;10.60;99.90;;;;;;5014283;28;20657;-70
2021/10/29 02:04:01;;;;;;;16.20;11.80;;;10.50;99.90;;;;;;5018271;28;20615;-69
2021/10/29 02:06:29;;;;;;;14.73;12.73;;;10.50;99.90;;;;;;5020309;28;20627;-70
2021/10/29 02:08:55;;;;;;;15.97;12.73;;;10.50;99.90;;;;;;5019175;28;21100;-70
2021/10/29 02:11:20;;;;;;;13.70;12.27;;;10.50;99.90;;;;;;5023409;28;21265;-70
2021/10/29 02:13:48;;;;;;;14.93;12.47;;;10.50;99.90;;;;;;5023883;28;20591;-70
2021/10/29 02:16:17;;;;;;;13.80;12.33;;;10.50;99.90;;;;;;5022720;28;20664;-70
2021/10/29 02:18:47;;;;;;;12.93;11.53;;;10.50;99.90;;;;;;5023564;28;20627;-70
2021/10/29 02:21:13;;;;;;;14.03;12.53;;;10.50;99.90;;;;;;5021545;28;21308;-68
2021/10/29 02:23:41;;;;;;;14.57;12.67;;;10.50;99.90;;;;;;5021335;28;20742;-69
2021/10/29 02:26:09;;;;;;;14.40;12.73;;;10.60;99.90;;;;;;5018184;28;20197;-69
2021/10/29 02:28:38;;;;;;;15.17;12.70;;;10.50;99.90;;;;;;5020916;28;20745;-69
2021/10/29 02:31:06;;;;;;;12.63;11.37;;;10.40;99.90;;;;;;5016268;28;20645;-69
2021/10/29 02:33:32;;;;;;;14.63;12.27;;;10.50;99.90;;;;;;5021193;28;20785;-69
2021/10/29 02:35:58;;;;;;;15.40;12.47;;;10.50;99.90;;;;;;5024046;28;20702;-69
2021/10/29 02:38:23;;;;;;;15.03;12.33;;;10.50;99.90;;;;;;5022873;28;20601;-69
2021/10/29 02:40:54;;;;;;;13.87;12.47;;;10.40;99.90;;;;;;5024749;28;20224;-69
2021/10/29 02:43:19;;;;;;;14.77;12.70;;;10.40;99.90;;;;;;5023030;28;20614;-68
2021/10/29 02:45:45;;;;;;;14.57;12.53;;;10.40;99.90;;;;;;5026025;28;20604;-71
2021/10/29 02:48:11;;;;;;;16.70;12.50;;;10.50;99.90;;;;;;5024231;28;20192;-70
2021/10/29 02:50:37;;;;;;;15.67;12.83;;;10.50;99.90;;;;;;5022005;28;20973;-69
2021/10/29 02:53:07;;;;;;;13.80;12.50;;;10.50;99.90;;;;;;5023586;28;20819;-71
2021/10/29 02:55:36;;;;;;;15.00;12.63;;;10.40;99.90;;;;;;5025920;28;20272;-68
2021/10/29 02:58:03;;;;;;;13.83;11.67;;;10.50;99.90;;;;;;5024271;28;20615;-70
2021/10/29 03:00:29;;;;;;;13.07;11.67;;;10.50;99.90;;;;;;5023471;28;21047;-68
2021/10/29 03:02:57;;;;;;;14.83;12.70;;;10.40;99.90;;;;;;5012100;28;20729;-67
2021/10/29 03:05:36;;;;;;;15.17;13.57;;;10.40;99.90;;;;;;5024744;28;20676;-67
2021/10/29 03:08:02;;;;;;;14.77;13.27;;;10.30;99.90;;;;;;5022914;28;21011;-67
2021/10/29 03:10:28;;;;;;;13.97;12.13;;;10.30;99.90;;;;;;5024039;28;20739;-67
2021/10/29 03:13:01;;;;;;;13.10;11.70;;;10.30;99.90;;;;;;5022375;28;20740;-68
2021/10/29 03:15:26;;;;;;;14.07;12.67;;;10.30;99.90;;;;;;5020027;28;20329;-67
2021/10/29 03:17:57;;;;;;;14.57;12.30;;;10.30;99.90;;;;;;5021589;28;20627;-67
2021/10/29 03:20:24;;;;;;;17.30;14.03;;;10.30;99.90;;;;;;5021091;28;20232;-69
2021/10/29 03:22:50;;;;;;;14.17;12.70;;;10.20;99.90;;;;;;5018890;28;20647;-67
2021/10/29 03:25:25;;;;;;;16.03;13.50;;;10.20;99.90;;;;;;5023324;28;20955;-67
2021/10/29 03:27:51;;;;;;;15.03;13.50;;;10.20;99.90;;;;;;5020803;28;20304;-67
2021/10/29 03:30:20;;;;;;;17.87;13.80;;;10.20;99.90;;;;;;5015554;28;21250;-67
2021/10/29 03:32:46;;;;;;;16.00;13.00;;;10.00;99.90;;;;;;5023922;28;20243;-68
2021/10/29 03:35:19;;;;;;;18.20;13.63;;;10.10;99.90;;;;;;5023275;28;20608;-67
2021/10/29 03:38:07;;;;;;;15.70;12.83;;;9.80;99.90;;;;;;5021075;28;20691;-67
2021/10/29 03:40:58;;;;;;;15.70;14.00;;;10.00;99.90;;;;;;5021174;28;20666;-69
2021/10/29 03:43:40;;;;;;;16.57;13.67;;;9.90;99.90;;;;;;5003158;28;21050;-68
2021/10/29 03:51:24;;;;;;;15.50;13.90;;;9.70;99.90;;;;;;5021619;28;20802;-69
2021/10/29 03:56:26;;;;;;;17.30;14.83;;;9.50;99.90;;;;;;5023816;28;20971;-69
2021/10/29 03:58:57;;;;;;;20.47;15.90;;;9.50;99.90;;;;;;5021594;28;20271;-68
2021/10/29 04:01:23;;;;;;;17.47;15.10;;;9.50;99.90;;;;;;5021175;28;20684;-69
2021/10/29 04:03:49;;;;;;;18.70;16.17;;;9.60;99.90;;;;;;5021392;28;20651;-69
2021/10/29 04:06:17;;;;;;;17.70;14.83;;;9.60;99.90;;;;;;5022665;28;21163;-69
2021/10/29 04:08:45;;;;;;;19.67;15.50;;;9.60;99.90;;;;;;5023143;28;20673;-68
2021/10/29 04:11:14;;;;;;;18.57;15.83;;;9.50;99.90;;;;;;5022707;28;20651;-68
2021/10/29 04:13:48;;;;;;;17.40;14.67;;;9.80;99.90;;;;;;5021776;28;21305;-68
2021/10/29 04:16:14;;;;;;;18.40;15.33;;;9.50;99.90;;;;;;5020207;28;20692;-68
2021/10/29 04:18:39;;;;;;;21.70;16.20;;;9.50;99.90;;;;;;5023568;28;20619;-68
2021/10/29 04:21:08;;;;;;;20.63;15.10;;;9.50;99.90;;;;;;5022314;28;20220;-68
2021/10/29 04:23:35;;;;;;;19.93;16.57;;;9.40;99.90;;;;;;5008739;28;20285;-68
2021/10/29 04:26:01;;;;;;;19.67;16.23;;;9.40;99.90;;;;;;5023031;28;20707;-67
2021/10/29 04:28:27;;;;;;;21.20;15.97;;;9.30;99.90;;;;;;5020162;28;21159;-69
2021/10/29 04:30:53;;;;;;;17.83;15.13;;;9.40;99.90;;;;;;5018416;28;20243;-68
2021/10/29 04:33:22;;;;;;;21.60;16.10;;;9.40;99.90;;;;;;5019177;28;20659;-68
2021/10/29 04:35:55;;;;;;;21.33;16.33;;;9.40;99.90;;;;;;5021922;28;20591;-69
2021/10/29 04:38:22;;;;;;;20.47;16.57;;;9.30;99.90;;;;;;5022174;28;20596;-69
2021/10/29 04:40:49;;;;;;;23.13;16.77;;;9.40;99.90;;;;;;5021132;28;20750;-67
2021/10/29 04:43:17;;;;;;;19.53;16.07;;;9.40;99.90;;;;;;5018954;28;21314;-69
2021/10/29 04:45:43;;;;;;;24.43;15.80;;;9.30;99.90;;;;;;5022948;28;20702;-69
2021/10/29 04:48:08;;;;;;;18.47;15.40;;;9.40;99.90;;;;;;5020211;28;21230;-69
2021/10/29 04:50:35;;;;;;;19.70;15.63;;;9.30;99.90;;;;;;5019413;28;20697;-69
2021/10/29 04:53:05;;;;;;;21.20;16.10;;;9.20;99.90;;;;;;5019226;28;20555;-67
2021/10/29 04:55:30;;;;;;;18.53;15.40;;;9.10;99.90;;;;;;5017135;28;20661;-68
2021/10/29 04:57:56;;;;;;;17.70;15.60;;;9.20;99.90;;;;;;5018491;28;20734;-67
2021/10/29 05:00:27;;;;;;;20.97;16.37;;;9.20;99.90;;;;;;5016742;28;20312;-69
2021/10/29 05:02:56;;;;;;;17.50;14.73;;;9.20;99.90;;;;;;5018498;28;20315;-69
2021/10/29 05:05:33;;;;;;;19.17;15.37;;;9.20;99.90;;;;;;5007760;28;20655;-67
2021/10/29 05:08:07;;;;;;;20.27;16.30;;;9.20;99.90;;;;;;5002081;28;20782;-69
2021/10/29 05:10:33;;;;;;;20.67;15.90;;;9.10;99.90;;;;;;4998896;28;21386;-68
2021/10/29 05:12:59;;;;;;;21.57;16.17;;;9.10;99.90;;;;;;5007784;28;21029;-68
2021/10/29 05:15:27;;;;;;;20.87;16.70;;;9.10;99.90;;;;;;5012949;28;20220;-68
2021/10/29 05:17:55;;;;;;;21.10;16.30;;;9.10;99.90;;;;;;5013228;28;20631;-67
2021/10/29 05:20:24;;;;;;;21.17;15.50;;;9.10;99.90;;;;;;5014933;28;20642;-68
2021/10/29 05:22:56;;;;;;;18.07;15.20;;;9.10;99.90;;;;;;5012936;28;21088;-67
2021/10/29 05:25:27;;;;;;;20.43;16.00;;;9.10;99.90;;;;;;5007873;28;20980;-69
2021/10/29 05:27:53;;;;;;;20.10;16.13;;;9.00;99.90;;;;;;4993198;28;20643;-69
2021/10/29 05:30:21;;;;;;;21.10;16.90;;;9.00;99.90;;;;;;5014786;28;20651;-69
2021/10/29 05:32:47;;;;;;;21.87;16.90;;;8.90;99.90;;;;;;5015313;28;20224;-69
2021/10/29 05:35:15;;;;;;;21.47;17.33;;;8.90;99.90;;;;;;5017771;28;21196;-67
2021/10/29 05:37:40;;;;;;;20.70;15.40;;;8.80;99.90;;;;;;5009414;28;20259;-69
2021/10/29 05:40:09;;;;;;;20.00;16.03;;;8.80;99.90;;;;;;5011589;28;21167;-67
2021/10/29 05:42:38;;;;;;;20.23;15.73;;;8.80;99.90;;;;;;5014750;28;20672;-69
2021/10/29 05:45:06;;;;;;;19.50;15.87;;;8.80;99.90;;;;;;5017956;28;20679;-67
2021/10/29 05:47:35;;;;;;;21.20;17.23;;;8.80;99.90;;;;;;5018474;28;20638;-67
2021/10/29 05:50:04;;;;;;;21.47;15.60;;;8.70;99.90;;;;;;5020556;28;20616;-67
2021/10/29 05:52:30;;;;;;;19.70;16.30;;;8.70;99.90;;;;;;5019536;28;20728;-68
2021/10/29 05:57:30;;;;;;;20.23;16.80;;;8.70;99.90;;;;;;5020224;28;20767;-68
2021/10/29 05:59:58;;;;;;;21.33;17.37;;;8.70;99.90;;;;;;5017982;28;20603;-67
2021/10/29 06:02:24;;;;;;;20.40;16.37;;;8.60;99.90;;;;;;4998204;28;21047;-67
2021/10/29 06:04:54;;;;;;;19.57;15.80;;;8.60;99.90;;;;;;5018934;28;20635;-67
2021/10/29 06:07:20;;;;;;;22.83;16.33;;;8.60;99.90;;;;;;5022053;28;20240;-67
2021/10/29 06:09:45;;;;;;;20.57;16.27;;;8.60;99.90;;;;;;5020839;28;20647;-68
2021/10/29 06:12:13;;;;;;;20.73;16.80;;;8.60;99.90;;;;;;5018618;28;20306;-68
2021/10/29 06:14:42;;;;;;;23.00;17.40;;;8.60;99.90;;;;;;5018211;28;20278;-68
2021/10/29 06:17:12;;;;;;;19.90;16.10;;;8.60;99.90;;;;;;5019465;28;20619;-67
2021/10/29 06:19:41;;;;;;;20.80;16.00;;;8.60;99.90;;;;;;5018321;28;20722;-67
2021/10/29 06:22:16;;;;;;;20.33;16.37;;;8.50;99.90;;;;;;5017797;28;21225;-67
2021/10/29 06:24:41;;;;;;;22.90;17.17;;;8.50;99.90;;;;;;5018472;28;20617;-68
2021/10/29 06:29:36;;;;;;;22.70;15.70;;;8.50;99.90;;;;;;5028600;28;20817;-69
2021/10/29 06:32:06;;;;;;;19.13;15.70;;;8.50;99.90;;;;;;5025977;28;20666;-69
2021/10/29 06:34:38;;;;;;;22.73;16.33;;;8.50;99.90;;;;;;5027375;28;20254;-68
2021/10/29 06:37:05;;;;;;;22.53;15.80;;;8.50;99.90;;;;;;5028395;28;20575;-68
2021/10/29 06:39:31;;;;;;;20.90;16.50;;;8.50;99.90;;;;;;5027407;28;20619;-68
2021/10/29 06:42:08;;;;;;;25.37;17.10;;;8.60;99.90;;;;;;5027208;28;20713;-69
2021/10/29 06:44:46;;;;;;;21.77;15.27;;;8.60;99.90;;;;;;5011171;28;20621;-69
2021/10/29 07:00:57;;;;;;;21.50;16.60;;;8.60;99.90;;;;;;5027101;28;20232;-67
2021/10/29 07:04:00;;;;;;;19.87;15.70;;;8.60;99.90;;;;;;5024470;28;20890;-68
2021/10/29 07:12:16;;;;;;;20.00;16.17;;;8.60;99.90;;;;;;5025736;28;20816;-68
2021/10/29 07:45:28;;;;;;;22.37;15.40;;;8.90;99.90;;;;;;4977606;28;20663;-70
2021/10/29 07:48:02;;;;;;;24.03;16.23;;;8.90;99.90;;;;;;5005966;28;20631;-69
2021/10/29 07:50:31;;;;;;;21.73;15.87;;;8.90;99.90;;;;;;5005549;28;20628;-69
2021/10/29 07:52:59;;;;;;;23.00;16.30;;;9.00;99.90;;;;;;4982533;28;20675;-68
2021/10/29 07:55:29;;;;;;;22.63;16.20;;;9.00;99.90;;;;;;5006445;28;20643;-68
2021/10/29 07:58:02;;;;;;;20.30;15.57;;;9.00;99.90;;;;;;5006549;28;20596;-68
2021/10/29 08:00:36;;;;;;;24.13;16.03;;;9.00;99.90;;;;;;4985929;28;20632;-68
2021/10/29 08:03:06;;;;;;;19.80;15.00;;;9.00;99.90;;;;;;5024662;28;20657;-68
2021/10/29 08:05:37;;;;;;;21.10;16.63;;;9.00;99.90;;;;;;5027957;28;20647;-68
2021/10/29 08:08:06;;;;;;;23.37;16.53;;;9.00;99.90;;;;;;5025925;28;20572;-68
2021/10/29 08:10:34;;;;;;;21.73;15.50;;;9.00;99.90;;;;;;5024210;28;20631;-67
2021/10/29 08:13:05;;;;;;;21.57;15.60;;;9.10;99.90;;;;;;5007919;28;20678;-68
2021/10/29 08:15:36;;;;;;;18.77;14.30;;;9.10;99.90;;;;;;5023002;28;21135;-67
2021/10/29 08:18:04;;;;;;;21.47;15.83;;;9.30;99.90;;;;;;5024708;28;20768;-69
2021/10/29 08:20:33;;;;;;;21.40;15.77;;;9.30;99.90;;;;;;5025913;28;20619;-67
2021/10/29 08:22:59;;;;;;;22.33;15.37;;;9.20;99.90;;;;;;5026340;28;20722;-68
2021/10/29 08:25:26;;;;;;;20.53;14.33;;;9.40;99.90;;;;;;5026150;28;21075;-70
2021/10/29 08:27:55;;;;;;;20.27;15.43;;;9.40;99.90;;;;;;5022667;28;20250;-69
2021/10/29 08:30:24;;;;;;;21.77;15.50;;;9.40;99.90;;;;;;5026512;28;21161;-68
2021/10/29 08:32:53;;;;;;;17.97;14.60;;;9.50;99.90;;;;;;5025233;28;20737;-69
2021/10/29 08:35:19;;;;;;;19.07;14.60;;;9.60;99.90;;;;;;5025381;28;20665;-68
2021/10/29 08:37:49;;;;;;;22.83;15.70;;;9.60;99.90;;;;;;5026389;28;20730;-69
2021/10/29 08:40:21;;;;;;;20.97;14.27;;;9.70;99.90;;;;;;5026058;28;20264;-69
2021/10/29 08:43:06;;;;;;;19.60;14.33;;;9.80;99.90;;;;;;5008044;28;21090;-69
2021/10/29 08:45:32;;;;;;;19.43;14.50;;;9.80;99.90;;;;;;5025029;28;21139;-69
2021/10/29 08:48:00;;;;;;;19.00;13.93;;;10.00;99.90;;;;;;5024645;28;20616;-69
2021/10/29 08:50:31;;;;;;;22.20;14.23;;;10.00;99.90;;;;;;5025637;28;20232;-68
2021/10/29 08:52:57;;;;;;;18.80;13.97;;;10.10;99.90;;;;;;5024236;28;21030;-68
2021/10/29 08:55:27;;;;;;;17.50;13.60;;;10.10;99.90;;;;;;5025505;28;20639;-70
2021/10/29 08:57:58;;;;;;;18.20;13.47;;;10.20;99.90;;;;;;5024809;28;20268;-67
2021/10/29 09:00:28;;;;;;;18.60;12.93;;;10.30;99.90;;;;;;5024584;28;21358;-68
2021/10/29 09:03:11;;;;;;;16.70;13.13;;;10.30;99.90;;;;;;5023733;28;20639;-68
2021/10/29 09:05:56;;;;;;;18.00;13.63;;;10.40;99.90;;;;;;5026598;28;20619;-68
2021/10/29 09:08:41;;;;;;;20.90;13.73;;;10.60;99.90;;;;;;5025885;28;20608;-68
2021/10/29 09:31:33;;;;;;;16.90;12.20;;;11.20;99.90;;;;;;5022892;28;20978;-67
2021/10/29 09:34:10;;;;;;;17.97;11.40;;;11.30;99.90;;;;;;5026108;28;20726;-69
2021/10/29 09:36:49;;;;;;;17.57;12.57;;;11.40;99.90;;;;;;5024649;28;20599;-69
2021/10/29 09:39:22;;;;;;;15.60;12.07;;;11.50;99.90;;;;;;5024273;28;20611;-69
2021/10/29 09:42:05;;;;;;;16.40;12.57;;;11.50;99.90;;;;;;5023930;28;21108;-69
2021/10/29 09:44:52;;;;;;;14.47;12.03;;;11.60;99.90;;;;;;5017270;28;20599;-67
2021/10/29 09:47:21;;;;;;;17.20;12.50;;;11.80;99.90;;;;;;5021749;28;21113;-69
2021/10/29 09:55:10;;;;;;;14.97;10.10;;;12.00;99.90;;;;;;5024306;28;20603;-67
2021/10/29 09:57:40;;;;;;;16.73;11.20;;;12.00;99.90;;;;;;5026018;28;20641;-69
2021/10/29 10:00:14;;;;;;;15.07;12.20;;;12.20;99.90;;;;;;5023690;28;20876;-66
2021/10/29 10:02:42;;;;;;;15.57;11.47;;;12.30;99.90;;;;;;5024189;28;20627;-66
2021/10/29 10:05:12;;;;;;;11.83;10.53;;;12.40;99.90;;;;;;5025045;28;20631;-67
2021/10/29 10:07:42;;;;;;;13.27;11.23;;;12.50;99.90;;;;;;5000964;28;20623;-67
2021/10/29 10:10:13;;;;;;;14.40;12.13;;;12.60;99.90;;;;;;5006824;28;21135;-66
2021/10/29 10:12:42;;;;;;;14.60;10.73;;;12.70;99.90;;;;;;5024762;28;20746;-66
2021/10/29 10:15:11;;;;;;;14.53;10.70;;;12.80;99.90;;;;;;5026306;28;20595;-67
2021/10/29 10:17:40;;;;;;;15.60;10.27;;;12.90;99.90;;;;;;5026707;28;20611;-69
2021/10/29 10:20:07;;;;;;;11.30;9.83;;;13.10;99.90;;;;;;5022423;28;20749;-68
2021/10/29 10:22:42;;;;;;;14.70;10.57;;;13.20;99.90;;;;;;5025686;28;20788;-67
2021/10/29 10:25:28;;;;;;;12.83;10.63;;;13.30;99.90;;;;;;5026090;28;20695;-68
2021/10/29 10:43:14;;;;;;;11.90;10.07;;;14.00;99.90;;;;;;4945363;28;20673;-67
2021/10/29 10:46:05;;;;;;;13.97;9.73;;;14.10;99.90;;;;;;5004388;28;20670;-68
2021/10/29 10:48:32;;;;;;;12.20;9.73;;;14.30;99.90;;;;;;5023897;28;20646;-70
2021/10/29 10:51:51;;;;;;;13.77;10.80;;;14.50;99.90;;;;;;5023022;28;20757;-69
2021/10/29 10:54:39;;;;;;;13.30;10.67;;;14.70;99.90;;;;;;5022815;28;20610;-68
2021/10/29 11:10:34;;;;;;;12.03;8.50;;;15.60;99.90;;;;;;5022226;28;21000;-67
2021/10/29 11:13:00;;;;;;;9.83;8.30;;;15.70;99.90;;;;;;5023605;28;20678;-67
2021/10/29 11:15:29;;;;;;;11.63;9.00;;;15.90;99.90;;;;;;5028874;28;20946;-67
2021/10/29 11:18:07;;;;;;;9.23;7.40;;;16.00;99.90;;;;;;5031211;28;20173;-67
2021/10/29 11:20:37;;;;;;;9.87;8.30;;;16.30;99.90;;;;;;5028626;28;20631;-67
2021/10/29 11:23:24;;;;;;;9.13;8.20;;;16.50;99.90;;;;;;5031133;28;20984;-68
2021/10/29 11:26:04;;;;;;;7.13;6.53;;;16.80;99.90;;;;;;5012028;28;21154;-70
2021/10/29 11:28:44;;;;;;;8.60;7.50;;;17.20;99.90;;;;;;5025224;28;20622;-69
2021/10/29 11:31:18;;;;;;;6.90;6.07;;;17.80;99.90;;;;;;5024240;28;21236;-68
2021/10/29 11:34:10;;;;;;;10.17;8.23;;;18.90;99.90;;;;;;5025932;28;20677;-68
2021/10/29 11:36:38;;;;;;;9.70;8.10;;;21.40;99.90;;;;;;5022583;28;20706;-68
2021/10/29 11:39:12;;;;;;;7.67;6.97;;;25.20;99.90;;;;;;5027392;28;20635;-69
2021/10/29 11:41:44;;;;;;;8.70;6.90;;;28.80;99.90;;;;;;5023413;28;20956;-69
2021/10/29 11:44:24;;;;;;;6.97;6.37;;;31.60;97.40;;;;;;5023278;28;20790;-70
2021/10/29 11:46:55;;;;;;;7.60;6.90;;;34.70;83.20;;;;;;5022995;28;20684;-71
2021/10/29 11:49:27;;;;;;;7.53;6.93;;;35.60;68.70;;;;;;5024107;28;20690;-69
2021/10/29 11:51:55;;;;;;;7.23;6.73;;;38.00;60.60;;;;;;5023859;28;20670;-69
2021/10/29 11:54:26;;;;;;;7.63;6.97;;;38.90;56.10;;;;;;5027041;28;20657;-69
2021/10/29 12:07:21;;;;;;;5.68;5.38;;;42.70;43.40;;;;;;5027462;28;20258;-69
2021/10/29 12:10:18;;;;;;;6.05;5.53;;;43.30;42.70;;;;;;5025038;28;20278;-69
2021/10/29 12:12:46;;;;;;;6.40;5.90;;;43.40;41.90;;;;;;5018065;28;20222;-69
2021/10/29 12:15:24;;;;;;;5.80;5.28;;;43.40;41.50;;;;;;5025238;28;20180;-69
2021/10/29 12:18:03;;;;;;;5.50;4.97;;;43.60;40.80;;;;;;5020408;28;20176;-69
2021/10/29 12:20:44;;;;;;;5.22;4.93;;;43.60;40.60;;;;;;5018196;28;20640;-69
2021/10/29 12:23:19;;;;;;;6.47;5.25;;;43.60;40.10;;;;;;5023323;28;20215;-69
2021/10/29 12:31:32;;;;;;;4.70;4.40;;;43.40;39.10;;;;;;5024581;28;20212;-68
2021/10/29 12:34:13;;;;;;;4.30;4.00;;;39.90;39.20;;;;;;5022139;28;20770;-68
2021/10/29 12:37:14;;;;;;;4.90;4.53;;;39.40;41.60;;;;;;5007892;28;20634;-68
2021/10/29 12:54:33;;;;;;;6.90;6.20;;;32.30;49.60;;;;;;5006794;28;20750;-67
2021/10/29 13:02:07;;;;;;;6.07;5.53;;;28.00;56.90;;;;;;4973344;28;20659;-68
2021/10/29 13:04:45;;;;;;;5.73;5.23;;;26.90;59.00;;;;;;5024400;28;20746;-69
2021/10/29 13:07:25;;;;;;;5.70;5.20;;;26.30;61.20;;;;;;5026069;28;20607;-69
2021/10/29 13:10:09;;;;;;;5.87;4.97;;;25.70;64.10;;;;;;5020990;28;20610;-67
2021/10/29 13:12:50;;;;;;;5.43;5.03;;;24.60;67.60;;;;;;5020263;28;20672;-66
2021/10/29 13:15:37;;;;;;;5.60;5.10;;;24.20;70.30;;;;;;5024111;28;20587;-66
2021/10/29 13:18:12;;;;;;;5.73;5.23;;;23.90;73.80;;;;;;5023594;28;21038;-66
2021/10/29 13:23:56;;;;;;;4.17;3.83;;;23.90;75.30;;;;;;4989807;28;20682;-65
2021/10/29 13:26:50;;;;;;;4.70;3.87;;;23.70;75.60;;;;;;5021635;28;20638;-67
2021/10/29 13:37:57;;;;;;;5.03;4.60;;;21.80;84.00;;;;;;4997568;28;20626;-69
2021/10/29 13:51:33;;;;;;;6.10;4.20;;;20.20;93.80;;;;;;5020638;28;20638;-68
2021/10/29 13:56:56;;;;;;;6.57;4.90;;;19.80;96.30;;;;;;5018598;28;20610;-68
2021/10/29 14:29:42;;;;;;;5.83;4.40;;;18.60;99.90;;;;;;5019742;28;20673;-69
2021/10/29 14:32:23;;;;;;;5.10;4.47;;;18.50;99.90;;;;;;5023319;28;20655;-69
2021/10/29 14:35:00;;;;;;;6.83;4.83;;;18.50;99.90;;;;;;5029362;28;20604;-70
2021/10/29 14:37:55;;;;;;;4.30;3.97;;;18.40;99.90;;;;;;5026122;28;20745;-69
2021/10/29 14:40:23;;;;;;;6.40;4.70;;;18.20;99.90;;;;;;5024737;28;20630;-69
2021/10/29 14:42:54;;;;;;;5.20;4.70;;;17.80;99.90;;;;;;5004009;28;21230;-69
2021/10/29 14:45:51;;;;;;;5.10;4.60;;;17.70;99.90;;;;;;5024916;28;20618;-69
2021/10/29 14:48:47;;;;;;;5.40;4.90;;;17.70;99.90;;;;;;5024053;28;20626;-68
2021/10/29 14:51:31;;;;;;;7.50;4.20;;;17.70;99.90;;;;;;5019866;28;20626;-69
2021/10/29 15:05:22;;;;;;;6.33;5.10;;;17.00;99.90;;;;;;5027090;28;20605;-69
2021/10/29 15:26:49;;;;;;;5.30;4.67;;;16.90;99.90;;;;;;5027843;28;20622;-72
2021/10/29 15:29:25;;;;;;;4.97;4.30;;;16.40;99.90;;;;;;5020917;28;20603;-72
2021/10/29 15:32:24;;;;;;;6.47;4.33;;;16.40;99.90;;;;;;5026929;28;20634;-72
2021/10/29 15:45:52;;;;;;;4.63;4.00;;;16.20;99.90;;;;;;5023842;28;20700;-71
2021/10/29 15:48:26;;;;;;;5.53;4.07;;;16.20;99.90;;;;;;5021407;28;20639;-72
2021/10/29 15:50:59;;;;;;;4.13;3.73;;;16.20;99.90;;;;;;5022262;28;20233;-69
2021/10/29 15:53:26;;;;;;;5.53;4.60;;;16.20;99.90;;;;;;5025814;28;20701;-72
2021/10/29 15:55:58;;;;;;;4.97;4.43;;;16.10;99.90;;;;;;5025241;28;20702;-72
2021/10/29 15:58:39;;;;;;;4.93;4.37;;;16.20;99.90;;;;;;5021916;28;20758;-72
2021/10/29 16:03:58;;;;;;;7.33;5.77;;;16.10;99.90;;;;;;5023531;28;20689;-72
2021/10/29 16:17:24;;;;;;;5.00;4.50;;;15.90;99.90;;;;;;5017756;28;21395;-71
2021/10/29 16:19:49;;;;;;;4.93;4.43;;;15.80;99.90;;;;;;5017839;28;20623;-71
2021/10/29 16:22:25;;;;;;;5.33;4.00;;;15.80;99.90;;;;;;5015377;28;20235;-71
2021/10/29 16:25:29;;;;;;;4.80;4.40;;;15.80;99.90;;;;;;5014299;28;20184;-71
2021/10/29 16:27:57;;;;;;;6.73;4.83;;;15.70;99.90;;;;;;5009582;28;20619;-71
2021/10/29 16:30:26;;;;;;;6.90;5.43;;;15.70;99.90;;;;;;5007670;28;20754;-71
2021/10/29 16:35:26;;;;;;;5.37;4.97;;;15.50;99.90;;;;;;5009872;28;20974;-71
2021/10/29 16:37:51;;;;;;;6.47;5.87;;;15.50;99.90;;;;;;5012390;28;20793;-70
2021/10/29 16:40:17;;;;;;;7.00;5.80;;;15.50;99.90;;;;;;5017225;28;20741;-71
2021/10/29 16:42:43;;;;;;;6.93;5.37;;;15.50;99.90;;;;;;5015944;28;20227;-71
2021/10/29 16:45:11;;;;;;;7.00;5.47;;;15.50;99.90;;;;;;5019422;28;20295;-70
2021/10/29 16:47:37;;;;;;;6.90;5.70;;;15.40;99.90;;;;;;5003072;28;20744;-70
2021/10/29 16:50:06;;;;;;;6.10;5.53;;;15.40;99.90;;;;;;4999927;28;21300;-71
2021/10/29 16:52:32;;;;;;;6.23;5.63;;;15.40;99.90;;;;;;5016933;28;20216;-71
2021/10/29 16:54:58;;;;;;;7.50;5.53;;;15.30;99.90;;;;;;5016996;28;20624;-71
2021/10/29 16:57:23;;;;;;;6.17;5.47;;;15.30;99.90;;;;;;5019660;28;20615;-71
2021/10/29 16:59:49;;;;;;;5.93;5.40;;;15.30;99.90;;;;;;5016279;28;20199;-71
2021/10/29 17:02:15;;;;;;;9.43;5.90;;;15.30;99.90;;;;;;4996906;28;20281;-71
2021/10/29 17:04:41;;;;;;;7.00;5.63;;;15.20;99.90;;;;;;5016773;28;20225;-70
2021/10/29 17:07:07;;;;;;;8.53;6.30;;;15.20;99.90;;;;;;5013841;28;21025;-70
2021/10/29 17:09:33;;;;;;;6.77;6.07;;;15.20;99.90;;;;;;5019490;28;20184;-70
2021/10/29 17:11:59;;;;;;;7.73;5.50;;;15.10;99.90;;;;;;5013858;28;20816;-71
2021/10/29 17:14:26;;;;;;;7.20;6.40;;;15.10;99.90;;;;;;5011378;28;20631;-71
2021/10/29 17:16:52;;;;;;;8.27;6.40;;;15.10;99.90;;;;;;5013133;28;20904;-70
2021/10/29 17:19:18;;;;;;;7.50;6.23;;;15.10;99.90;;;;;;5010929;28;21051;-71
2021/10/29 17:21:43;;;;;;;7.47;6.77;;;15.00;99.90;;;;;;5010277;28;20220;-71
2021/10/29 17:24:09;;;;;;;8.70;7.90;;;15.00;99.90;;;;;;5012555;28;20185;-71
2021/10/29 17:26:35;;;;;;;7.53;6.83;;;15.00;99.90;;;;;;5007550;28;20513;-71